sensor_id;sensor_type;location;lat;lon;timestamp;P1;durP1;ratioP1;P2;durP2;ratioP2
40471;SDS011;26174;42.908;23.800;2022-11-12T00:01:02;14.32;;;8.18;;
40471;SDS011;26174;42.908;23.800;2022-11-12T00:03:28;18.38;;;8.93;;
40471;SDS011;26174;42.908;23.800;2022-11-12T00:05:53;18.73;;;9.77;;
40471;SDS011;26174;42.908;23.800;2022-11-12T00:08:19;14.98;;;8.25;;
40471;SDS011;26174;42.908;23.800;2022-11-12T00:10:45;12.80;;;8.30;;
40471;SDS011;26174;42.908;23.800;2022-11-12T00:13:10;17.42;;;8.63;;
40471;SDS011;26174;42.908;23.800;2022-11-12T00:15:36;16.63;;;8.70;;
40471;SDS011;26174;42.908;23.800;2022-11-12T00:18:02;14.43;;;8.00;;
40471;SDS011;26174;42.908;23.800;2022-11-12T00:20:27;19.52;;;8.13;;
40471;SDS011;26174;42.908;23.800;2022-11-12T00:22:53;15.57;;;8.10;;
40471;SDS011;26174;42.908;23.800;2022-11-12T00:25:19;13.35;;;8.32;;
40471;SDS011;26174;42.908;23.800;2022-11-12T00:27:44;18.13;;;9.32;;
40471;SDS011;26174;42.908;23.800;2022-11-12T00:30:10;13.95;;;8.27;;
40471;SDS011;26174;42.908;23.800;2022-11-12T00:32:36;21.33;;;10.02;;
40471;SDS011;26174;42.908;23.800;2022-11-12T00:35:02;14.18;;;8.05;;
40471;SDS011;26174;42.908;23.800;2022-11-12T00:37:28;16.02;;;8.88;;
40471;SDS011;26174;42.908;23.800;2022-11-12T00:39:54;21.30;;;8.57;;
40471;SDS011;26174;42.908;23.800;2022-11-12T00:42:19;13.77;;;7.82;;
40471;SDS011;26174;42.908;23.800;2022-11-12T00:44:45;15.82;;;8.20;;
40471;SDS011;26174;42.908;23.800;2022-11-12T00:47:10;14.65;;;8.10;;
40471;SDS011;26174;42.908;23.800;2022-11-12T00:49:36;14.15;;;7.50;;
40471;SDS011;26174;42.908;23.800;2022-11-12T00:52:02;18.48;;;8.82;;
40471;SDS011;26174;42.908;23.800;2022-11-12T00:54:27;13.10;;;7.95;;
40471;SDS011;26174;42.908;23.800;2022-11-12T00:56:53;19.30;;;10.00;;
40471;SDS011;26174;42.908;23.800;2022-11-12T00:59:18;14.68;;;8.50;;
40471;SDS011;26174;42.908;23.800;2022-11-12T01:01:44;15.95;;;9.68;;
40471;SDS011;26174;42.908;23.800;2022-11-12T01:04:09;16.52;;;10.13;;
40471;SDS011;26174;42.908;23.800;2022-11-12T01:06:37;20.40;;;11.10;;
40471;SDS011;26174;42.908;23.800;2022-11-12T01:09:03;19.30;;;11.00;;
40471;SDS011;26174;42.908;23.800;2022-11-12T01:11:29;22.45;;;12.32;;
40471;SDS011;26174;42.908;23.800;2022-11-12T01:13:55;19.75;;;12.18;;
40471;SDS011;26174;42.908;23.800;2022-11-12T01:16:23;25.15;;;12.73;;
40471;SDS011;26174;42.908;23.800;2022-11-12T01:18:54;25.50;;;12.63;;
40471;SDS011;26174;42.908;23.800;2022-11-12T01:21:22;20.75;;;10.50;;
40471;SDS011;26174;42.908;23.800;2022-11-12T01:23:49;23.70;;;10.10;;
40471;SDS011;26174;42.908;23.800;2022-11-12T01:26:15;20.60;;;9.80;;
40471;SDS011;26174;42.908;23.800;2022-11-12T01:28:43;17.67;;;9.93;;
40471;SDS011;26174;42.908;23.800;2022-11-12T01:31:09;19.92;;;10.02;;
40471;SDS011;26174;42.908;23.800;2022-11-12T01:33:35;16.83;;;9.57;;
40471;SDS011;26174;42.908;23.800;2022-11-12T01:36:01;17.55;;;8.77;;
40471;SDS011;26174;42.908;23.800;2022-11-12T01:38:26;16.58;;;9.48;;
40471;SDS011;26174;42.908;23.800;2022-11-12T01:40:52;19.42;;;9.23;;
40471;SDS011;26174;42.908;23.800;2022-11-12T01:43:17;17.38;;;9.50;;
40471;SDS011;26174;42.908;23.800;2022-11-12T01:45:44;17.10;;;9.52;;
40471;SDS011;26174;42.908;23.800;2022-11-12T01:48:13;22.92;;;11.25;;
40471;SDS011;26174;42.908;23.800;2022-11-12T01:50:49;24.75;;;10.35;;
40471;SDS011;26174;42.908;23.800;2022-11-12T01:53:16;32.35;;;11.35;;
40471;SDS011;26174;42.908;23.800;2022-11-12T01:55:42;27.67;;;11.15;;
40471;SDS011;26174;42.908;23.800;2022-11-12T01:58:09;22.92;;;11.45;;
40471;SDS011;26174;42.908;23.800;2022-11-12T02:00:37;30.70;;;13.85;;
40471;SDS011;26174;42.908;23.800;2022-11-12T02:03:05;25.85;;;12.95;;
40471;SDS011;26174;42.908;23.800;2022-11-12T02:05:35;20.88;;;10.07;;
40471;SDS011;26174;42.908;23.800;2022-11-12T02:08:02;15.85;;;9.77;;
40471;SDS011;26174;42.908;23.800;2022-11-12T02:10:27;17.17;;;9.13;;
40471;SDS011;26174;42.908;23.800;2022-11-12T02:12:53;14.38;;;8.27;;
40471;SDS011;26174;42.908;23.800;2022-11-12T02:15:38;15.43;;;8.20;;
40471;SDS011;26174;42.908;23.800;2022-11-12T02:18:04;25.65;;;10.02;;
40471;SDS011;26174;42.908;23.800;2022-11-12T02:20:36;17.55;;;9.60;;
40471;SDS011;26174;42.908;23.800;2022-11-12T02:23:03;15.65;;;8.63;;
40471;SDS011;26174;42.908;23.800;2022-11-12T02:25:31;19.70;;;9.45;;
40471;SDS011;26174;42.908;23.800;2022-11-12T02:27:57;17.00;;;8.88;;
40471;SDS011;26174;42.908;23.800;2022-11-12T02:30:35;17.58;;;8.80;;
40471;SDS011;26174;42.908;23.800;2022-11-12T02:33:02;14.15;;;8.27;;
40471;SDS011;26174;42.908;23.800;2022-11-12T02:35:28;15.45;;;7.65;;
40471;SDS011;26174;42.908;23.800;2022-11-12T02:37:55;17.75;;;8.98;;
40471;SDS011;26174;42.908;23.800;2022-11-12T02:40:20;16.60;;;8.80;;
40471;SDS011;26174;42.908;23.800;2022-11-12T02:42:46;20.25;;;9.82;;
40471;SDS011;26174;42.908;23.800;2022-11-12T02:45:11;21.70;;;9.82;;
40471;SDS011;26174;42.908;23.800;2022-11-12T02:47:37;23.85;;;11.07;;
40471;SDS011;26174;42.908;23.800;2022-11-12T02:50:06;27.70;;;11.18;;
40471;SDS011;26174;42.908;23.800;2022-11-12T02:52:32;24.98;;;11.60;;
40471;SDS011;26174;42.908;23.800;2022-11-12T02:54:57;31.50;;;11.68;;
40471;SDS011;26174;42.908;23.800;2022-11-12T02:57:23;22.55;;;11.02;;
40471;SDS011;26174;42.908;23.800;2022-11-12T02:59:48;20.30;;;10.13;;
40471;SDS011;26174;42.908;23.800;2022-11-12T03:02:14;22.20;;;11.18;;
40471;SDS011;26174;42.908;23.800;2022-11-12T03:04:40;20.48;;;11.10;;
40471;SDS011;26174;42.908;23.800;2022-11-12T03:07:05;23.25;;;10.98;;
40471;SDS011;26174;42.908;23.800;2022-11-12T03:09:31;30.38;;;12.45;;
40471;SDS011;26174;42.908;23.800;2022-11-12T03:11:56;26.25;;;11.25;;
40471;SDS011;26174;42.908;23.800;2022-11-12T03:14:22;20.65;;;10.48;;
40471;SDS011;26174;42.908;23.800;2022-11-12T03:16:48;22.65;;;11.25;;
40471;SDS011;26174;42.908;23.800;2022-11-12T03:19:13;21.55;;;10.93;;
40471;SDS011;26174;42.908;23.800;2022-11-12T03:21:39;25.40;;;11.20;;
40471;SDS011;26174;42.908;23.800;2022-11-12T03:24:04;27.48;;;13.20;;
40471;SDS011;26174;42.908;23.800;2022-11-12T03:26:30;44.13;;;18.90;;
40471;SDS011;26174;42.908;23.800;2022-11-12T03:28:55;31.20;;;15.43;;
40471;SDS011;26174;42.908;23.800;2022-11-12T03:31:21;19.40;;;9.73;;
40471;SDS011;26174;42.908;23.800;2022-11-12T03:33:46;19.05;;;8.07;;
40471;SDS011;26174;42.908;23.800;2022-11-12T03:36:12;14.93;;;7.28;;
40471;SDS011;26174;42.908;23.800;2022-11-12T03:38:37;15.82;;;8.98;;
40471;SDS011;26174;42.908;23.800;2022-11-12T03:41:03;17.52;;;9.60;;
40471;SDS011;26174;42.908;23.800;2022-11-12T03:43:29;16.27;;;8.85;;
40471;SDS011;26174;42.908;23.800;2022-11-12T03:45:54;19.48;;;9.05;;
40471;SDS011;26174;42.908;23.800;2022-11-12T03:48:20;25.08;;;10.32;;
40471;SDS011;26174;42.908;23.800;2022-11-12T03:50:45;19.95;;;8.38;;
40471;SDS011;26174;42.908;23.800;2022-11-12T03:53:11;18.40;;;8.75;;
40471;SDS011;26174;42.908;23.800;2022-11-12T03:55:36;17.88;;;8.70;;
40471;SDS011;26174;42.908;23.800;2022-11-12T03:58:02;18.52;;;8.70;;
40471;SDS011;26174;42.908;23.800;2022-11-12T04:00:28;16.95;;;8.80;;
40471;SDS011;26174;42.908;23.800;2022-11-12T04:02:54;19.42;;;8.93;;
40471;SDS011;26174;42.908;23.800;2022-11-12T04:05:20;17.50;;;9.35;;
40471;SDS011;26174;42.908;23.800;2022-11-12T04:10:50;21.58;;;11.23;;
40471;SDS011;26174;42.908;23.800;2022-11-12T04:13:16;30.08;;;12.52;;
40471;SDS011;26174;42.908;23.800;2022-11-12T04:15:54;30.30;;;11.32;;
40471;SDS011;26174;42.908;23.800;2022-11-12T04:18:58;19.95;;;9.93;;
40471;SDS011;26174;42.908;23.800;2022-11-12T04:21:51;29.20;;;13.20;;
40471;SDS011;26174;42.908;23.800;2022-11-12T04:24:27;27.45;;;10.45;;
40471;SDS011;26174;42.908;23.800;2022-11-12T04:27:23;19.73;;;9.98;;
40471;SDS011;26174;42.908;23.800;2022-11-12T04:29:50;17.73;;;9.95;;
40471;SDS011;26174;42.908;23.800;2022-11-12T04:32:35;21.45;;;10.25;;
40471;SDS011;26174;42.908;23.800;2022-11-12T04:35:03;19.20;;;10.18;;
40471;SDS011;26174;42.908;23.800;2022-11-12T04:37:30;22.48;;;9.98;;
40471;SDS011;26174;42.908;23.800;2022-11-12T04:40:09;17.38;;;9.30;;
40471;SDS011;26174;42.908;23.800;2022-11-12T04:42:57;22.23;;;10.23;;
40471;SDS011;26174;42.908;23.800;2022-11-12T04:45:42;28.50;;;14.25;;
40471;SDS011;26174;42.908;23.800;2022-11-12T04:48:09;31.67;;;14.30;;
40471;SDS011;26174;42.908;23.800;2022-11-12T04:50:34;24.75;;;12.07;;
40471;SDS011;26174;42.908;23.800;2022-11-12T04:53:00;35.83;;;14.70;;
40471;SDS011;26174;42.908;23.800;2022-11-12T04:55:26;29.38;;;13.80;;
40471;SDS011;26174;42.908;23.800;2022-11-12T04:57:51;32.20;;;15.30;;
40471;SDS011;26174;42.908;23.800;2022-11-12T05:00:17;72.00;;;23.67;;
40471;SDS011;26174;42.908;23.800;2022-11-12T05:02:43;32.28;;;14.70;;
40471;SDS011;26174;42.908;23.800;2022-11-12T05:05:08;29.77;;;13.15;;
40471;SDS011;26174;42.908;23.800;2022-11-12T05:07:34;26.45;;;12.38;;
40471;SDS011;26174;42.908;23.800;2022-11-12T05:09:59;27.58;;;12.43;;
40471;SDS011;26174;42.908;23.800;2022-11-12T05:12:25;24.65;;;13.65;;
40471;SDS011;26174;42.908;23.800;2022-11-12T05:14:50;29.27;;;14.95;;
40471;SDS011;26174;42.908;23.800;2022-11-12T05:17:16;28.52;;;14.85;;
40471;SDS011;26174;42.908;23.800;2022-11-12T05:19:42;27.65;;;14.27;;
40471;SDS011;26174;42.908;23.800;2022-11-12T05:22:08;34.20;;;14.65;;
40471;SDS011;26174;42.908;23.800;2022-11-12T05:24:36;38.10;;;16.80;;
40471;SDS011;26174;42.908;23.800;2022-11-12T05:27:03;33.95;;;16.58;;
40471;SDS011;26174;42.908;23.800;2022-11-12T05:29:30;42.33;;;17.83;;
40471;SDS011;26174;42.908;23.800;2022-11-12T05:31:56;30.27;;;14.73;;
40471;SDS011;26174;42.908;23.800;2022-11-12T05:34:21;33.17;;;15.05;;
40471;SDS011;26174;42.908;23.800;2022-11-12T05:36:47;40.17;;;19.05;;
40471;SDS011;26174;42.908;23.800;2022-11-12T05:39:13;54.03;;;22.05;;
40471;SDS011;26174;42.908;23.800;2022-11-12T05:41:38;64.85;;;31.58;;
40471;SDS011;26174;42.908;23.800;2022-11-12T05:44:04;53.95;;;27.60;;
40471;SDS011;26174;42.908;23.800;2022-11-12T05:46:29;43.00;;;22.05;;
40471;SDS011;26174;42.908;23.800;2022-11-12T05:48:55;42.08;;;20.98;;
40471;SDS011;26174;42.908;23.800;2022-11-12T05:51:21;42.08;;;21.48;;
40471;SDS011;26174;42.908;23.800;2022-11-12T05:53:46;51.17;;;24.33;;
40471;SDS011;26174;42.908;23.800;2022-11-12T05:56:12;48.22;;;26.52;;
40471;SDS011;26174;42.908;23.800;2022-11-12T05:58:37;46.28;;;23.83;;
40471;SDS011;26174;42.908;23.800;2022-11-12T06:01:03;45.70;;;21.92;;
40471;SDS011;26174;42.908;23.800;2022-11-12T06:03:28;96.45;;;41.75;;
40471;SDS011;26174;42.908;23.800;2022-11-12T06:05:54;64.20;;;28.25;;
40471;SDS011;26174;42.908;23.800;2022-11-12T06:08:20;54.63;;;21.73;;
40471;SDS011;26174;42.908;23.800;2022-11-12T06:10:49;48.10;;;23.15;;
40471;SDS011;26174;42.908;23.800;2022-11-12T06:13:16;53.15;;;25.00;;
40471;SDS011;26174;42.908;23.800;2022-11-12T06:15:42;41.50;;;19.35;;
40471;SDS011;26174;42.908;23.800;2022-11-12T06:18:08;31.05;;;13.52;;
40471;SDS011;26174;42.908;23.800;2022-11-12T06:20:34;31.45;;;13.50;;
40471;SDS011;26174;42.908;23.800;2022-11-12T06:22:59;22.60;;;10.93;;
40471;SDS011;26174;42.908;23.800;2022-11-12T06:25:25;19.92;;;10.52;;
40471;SDS011;26174;42.908;23.800;2022-11-12T06:27:51;20.58;;;10.85;;
40471;SDS011;26174;42.908;23.800;2022-11-12T06:30:16;19.25;;;10.38;;
40471;SDS011;26174;42.908;23.800;2022-11-12T06:32:46;21.98;;;10.05;;
40471;SDS011;26174;42.908;23.800;2022-11-12T06:35:12;26.00;;;13.48;;
40471;SDS011;26174;42.908;23.800;2022-11-12T06:37:38;24.73;;;12.10;;
40471;SDS011;26174;42.908;23.800;2022-11-12T06:40:04;30.77;;;14.65;;
40471;SDS011;26174;42.908;23.800;2022-11-12T06:42:30;26.55;;;14.60;;
40471;SDS011;26174;42.908;23.800;2022-11-12T06:44:55;25.98;;;13.65;;
40471;SDS011;26174;42.908;23.800;2022-11-12T06:47:21;23.38;;;11.25;;
40471;SDS011;26174;42.908;23.800;2022-11-12T06:49:46;23.42;;;12.05;;
40471;SDS011;26174;42.908;23.800;2022-11-12T06:52:12;27.00;;;14.95;;
40471;SDS011;26174;42.908;23.800;2022-11-12T06:54:39;33.45;;;15.43;;
40471;SDS011;26174;42.908;23.800;2022-11-12T06:57:05;29.75;;;15.73;;
40471;SDS011;26174;42.908;23.800;2022-11-12T06:59:30;38.33;;;20.23;;
40471;SDS011;26174;42.908;23.800;2022-11-12T07:01:56;33.22;;;19.30;;
40471;SDS011;26174;42.908;23.800;2022-11-12T07:04:22;41.72;;;22.80;;
40471;SDS011;26174;42.908;23.800;2022-11-12T07:06:49;37.30;;;18.58;;
40471;SDS011;26174;42.908;23.800;2022-11-12T07:09:14;30.98;;;16.23;;
40471;SDS011;26174;42.908;23.800;2022-11-12T07:11:40;38.85;;;17.40;;
40471;SDS011;26174;42.908;23.800;2022-11-12T07:14:05;29.85;;;16.92;;
40471;SDS011;26174;42.908;23.800;2022-11-12T07:16:31;37.42;;;18.40;;
40471;SDS011;26174;42.908;23.800;2022-11-12T07:18:57;17.83;;;10.18;;
40471;SDS011;26174;42.908;23.800;2022-11-12T07:21:22;22.38;;;12.35;;
40471;SDS011;26174;42.908;23.800;2022-11-12T07:23:48;21.48;;;11.57;;
40471;SDS011;26174;42.908;23.800;2022-11-12T07:28:41;32.97;;;12.57;;
40471;SDS011;26174;42.908;23.800;2022-11-12T07:31:08;26.90;;;15.13;;
40471;SDS011;26174;42.908;23.800;2022-11-12T07:33:35;40.47;;;19.35;;
40471;SDS011;26174;42.908;23.800;2022-11-12T07:36:07;39.45;;;18.85;;
40471;SDS011;26174;42.908;23.800;2022-11-12T07:38:35;40.08;;;19.75;;
40471;SDS011;26174;42.908;23.800;2022-11-12T07:41:03;35.85;;;18.40;;
40471;SDS011;26174;42.908;23.800;2022-11-12T07:43:33;38.03;;;17.70;;
40471;SDS011;26174;42.908;23.800;2022-11-12T07:46:00;27.02;;;15.35;;
40471;SDS011;26174;42.908;23.800;2022-11-12T07:48:29;20.17;;;10.88;;
40471;SDS011;26174;42.908;23.800;2022-11-12T07:51:01;23.63;;;11.27;;
40471;SDS011;26174;42.908;23.800;2022-11-12T07:53:30;23.95;;;12.80;;
40471;SDS011;26174;42.908;23.800;2022-11-12T07:55:57;25.65;;;12.15;;
40471;SDS011;26174;42.908;23.800;2022-11-12T07:58:25;21.92;;;12.27;;
40471;SDS011;26174;42.908;23.800;2022-11-12T08:03:33;29.35;;;12.88;;
40471;SDS011;26174;42.908;23.800;2022-11-12T08:05:58;25.90;;;13.23;;
40471;SDS011;26174;42.908;23.800;2022-11-12T08:08:25;22.40;;;12.93;;
40471;SDS011;26174;42.908;23.800;2022-11-12T08:10:57;25.35;;;12.60;;
40471;SDS011;26174;42.908;23.800;2022-11-12T08:13:23;23.50;;;12.38;;
40471;SDS011;26174;42.908;23.800;2022-11-12T08:15:48;22.05;;;11.73;;
40471;SDS011;26174;42.908;23.800;2022-11-12T08:18:14;20.75;;;11.77;;
40471;SDS011;26174;42.908;23.800;2022-11-12T08:20:40;27.23;;;13.40;;
40471;SDS011;26174;42.908;23.800;2022-11-12T08:23:05;19.75;;;10.80;;
40471;SDS011;26174;42.908;23.800;2022-11-12T08:25:31;24.67;;;12.02;;
40471;SDS011;26174;42.908;23.800;2022-11-12T08:27:57;19.25;;;10.57;;
40471;SDS011;26174;42.908;23.800;2022-11-12T08:30:25;22.73;;;12.43;;
40471;SDS011;26174;42.908;23.800;2022-11-12T08:32:58;20.60;;;11.50;;
40471;SDS011;26174;42.908;23.800;2022-11-12T08:35:25;24.00;;;10.07;;
40471;SDS011;26174;42.908;23.800;2022-11-12T08:40:25;25.90;;;10.52;;
40471;SDS011;26174;42.908;23.800;2022-11-12T08:45:23;16.88;;;8.73;;
40471;SDS011;26174;42.908;23.800;2022-11-12T08:47:49;19.75;;;9.82;;
40471;SDS011;26174;42.908;23.800;2022-11-12T08:50:15;19.13;;;10.57;;
40471;SDS011;26174;42.908;23.800;2022-11-12T08:52:40;22.45;;;11.57;;
40471;SDS011;26174;42.908;23.800;2022-11-12T08:55:06;21.98;;;12.27;;
40471;SDS011;26174;42.908;23.800;2022-11-12T08:57:37;23.00;;;12.25;;
40471;SDS011;26174;42.908;23.800;2022-11-12T09:00:04;22.63;;;11.75;;
40471;SDS011;26174;42.908;23.800;2022-11-12T09:02:30;25.38;;;12.63;;
40471;SDS011;26174;42.908;23.800;2022-11-12T09:04:56;26.00;;;12.98;;
40471;SDS011;26174;42.908;23.800;2022-11-12T09:07:21;24.85;;;12.82;;
40471;SDS011;26174;42.908;23.800;2022-11-12T09:09:47;25.45;;;14.40;;
40471;SDS011;26174;42.908;23.800;2022-11-12T09:12:12;25.85;;;13.38;;
40471;SDS011;26174;42.908;23.800;2022-11-12T09:14:43;25.45;;;13.18;;
40471;SDS011;26174;42.908;23.800;2022-11-12T09:17:08;25.95;;;13.80;;
40471;SDS011;26174;42.908;23.800;2022-11-12T09:19:34;28.67;;;13.57;;
40471;SDS011;26174;42.908;23.800;2022-11-12T09:21:59;31.15;;;13.57;;
40471;SDS011;26174;42.908;23.800;2022-11-12T09:24:25;24.02;;;13.35;;
40471;SDS011;26174;42.908;23.800;2022-11-12T09:26:54;29.63;;;16.45;;
40471;SDS011;26174;42.908;23.800;2022-11-12T09:29:19;29.35;;;14.45;;
40471;SDS011;26174;42.908;23.800;2022-11-12T09:31:45;27.98;;;13.05;;
40471;SDS011;26174;42.908;23.800;2022-11-12T09:34:11;30.33;;;13.57;;
40471;SDS011;26174;42.908;23.800;2022-11-12T09:36:36;21.98;;;12.32;;
40471;SDS011;26174;42.908;23.800;2022-11-12T09:39:02;22.52;;;12.02;;
40471;SDS011;26174;42.908;23.800;2022-11-12T09:41:37;24.33;;;12.68;;
40471;SDS011;26174;42.908;23.800;2022-11-12T09:44:08;26.13;;;13.00;;
40471;SDS011;26174;42.908;23.800;2022-11-12T09:46:56;29.80;;;15.57;;
40471;SDS011;26174;42.908;23.800;2022-11-12T09:49:30;38.80;;;17.75;;
40471;SDS011;26174;42.908;23.800;2022-11-12T09:54:30;23.30;;;12.15;;
40471;SDS011;26174;42.908;23.800;2022-11-12T09:56:56;23.63;;;11.60;;
40471;SDS011;26174;42.908;23.800;2022-11-12T09:59:22;19.17;;;10.00;;
40471;SDS011;26174;42.908;23.800;2022-11-12T10:18:06;10.50;;;5.93;;
40471;SDS011;26174;42.908;23.800;2022-11-12T10:20:40;13.38;;;6.10;;
40471;SDS011;26174;42.908;23.800;2022-11-12T10:25:41;12.67;;;5.27;;
40471;SDS011;26174;42.908;23.800;2022-11-12T10:28:27;11.15;;;5.95;;
40471;SDS011;26174;42.908;23.800;2022-11-12T10:30:55;8.90;;;5.65;;
40471;SDS011;26174;42.908;23.800;2022-11-12T10:33:28;10.55;;;5.90;;
40471;SDS011;26174;42.908;23.800;2022-11-12T10:35:54;9.07;;;5.28;;
40471;SDS011;26174;42.908;23.800;2022-11-12T10:38:24;11.07;;;5.95;;
40471;SDS011;26174;42.908;23.800;2022-11-12T10:40:51;11.73;;;5.65;;
40471;SDS011;26174;42.908;23.800;2022-11-12T10:45:43;12.98;;;6.85;;
40471;SDS011;26174;42.908;23.800;2022-11-12T10:51:07;18.50;;;7.25;;
40471;SDS011;26174;42.908;23.800;2022-11-12T10:53:44;12.25;;;6.75;;
40471;SDS011;26174;42.908;23.800;2022-11-12T10:56:31;14.77;;;7.63;;
40471;SDS011;26174;42.908;23.800;2022-11-12T10:59:15;12.15;;;6.97;;
40471;SDS011;26174;42.908;23.800;2022-11-12T11:01:43;14.85;;;7.25;;
40471;SDS011;26174;42.908;23.800;2022-11-12T11:04:26;13.68;;;6.43;;
40471;SDS011;26174;42.908;23.800;2022-11-12T11:07:14;13.93;;;7.00;;
40471;SDS011;26174;42.908;23.800;2022-11-12T11:09:54;13.80;;;7.53;;
40471;SDS011;26174;42.908;23.800;2022-11-12T11:12:22;18.55;;;7.10;;
40471;SDS011;26174;42.908;23.800;2022-11-12T11:14:48;12.30;;;5.93;;
40471;SDS011;26174;42.908;23.800;2022-11-12T11:17:35;15.50;;;6.47;;
40471;SDS011;26174;42.908;23.800;2022-11-12T11:20:01;14.32;;;7.78;;
40471;SDS011;26174;42.908;23.800;2022-11-12T11:30:37;13.70;;;7.78;;
40471;SDS011;26174;42.908;23.800;2022-11-12T11:33:35;17.30;;;6.53;;
40471;SDS011;26174;42.908;23.800;2022-11-12T11:52:29;11.23;;;7.15;;
40471;SDS011;26174;42.908;23.800;2022-11-12T12:01:09;19.23;;;10.32;;
40471;SDS011;26174;42.908;23.800;2022-11-12T12:06:42;14.35;;;9.00;;
40471;SDS011;26174;42.908;23.800;2022-11-12T12:09:17;16.63;;;9.32;;
40471;SDS011;26174;42.908;23.800;2022-11-12T12:17:42;11.20;;;5.40;;
40471;SDS011;26174;42.908;23.800;2022-11-12T12:20:20;11.27;;;6.15;;
40471;SDS011;26174;42.908;23.800;2022-11-12T12:23:12;8.73;;;5.30;;
40471;SDS011;26174;42.908;23.800;2022-11-12T12:25:55;7.03;;;4.13;;
40471;SDS011;26174;42.908;23.800;2022-11-12T12:28:27;8.45;;;4.85;;
40471;SDS011;26174;42.908;23.800;2022-11-12T12:31:14;16.33;;;9.35;;
40471;SDS011;26174;42.908;23.800;2022-11-12T12:33:47;17.23;;;9.77;;
40471;SDS011;26174;42.908;23.800;2022-11-12T12:41:44;21.70;;;11.27;;
40471;SDS011;26174;42.908;23.800;2022-11-12T12:44:14;20.50;;;11.52;;
40471;SDS011;26174;42.908;23.800;2022-11-12T12:46:41;14.98;;;7.85;;
40471;SDS011;26174;42.908;23.800;2022-11-12T12:49:16;11.55;;;6.82;;
40471;SDS011;26174;42.908;23.800;2022-11-12T12:51:43;16.05;;;8.00;;
40471;SDS011;26174;42.908;23.800;2022-11-12T12:56:59;21.00;;;11.50;;
40471;SDS011;26174;42.908;23.800;2022-11-12T12:59:25;23.85;;;12.98;;
40471;SDS011;26174;42.908;23.800;2022-11-12T13:02:00;22.83;;;12.15;;
40471;SDS011;26174;42.908;23.800;2022-11-12T13:07:41;27.77;;;13.55;;
40471;SDS011;26174;42.908;23.800;2022-11-12T13:15:45;20.60;;;12.00;;
40471;SDS011;26174;42.908;23.800;2022-11-12T13:18:56;20.23;;;10.52;;
40471;SDS011;26174;42.908;23.800;2022-11-12T13:21:15;19.10;;;11.07;;
40471;SDS011;26174;42.908;23.800;2022-11-12T13:23:49;18.23;;;10.90;;
40471;SDS011;26174;42.908;23.800;2022-11-12T13:29:43;22.83;;;11.23;;
40471;SDS011;26174;42.908;23.800;2022-11-12T13:37:46;22.60;;;13.40;;
40471;SDS011;26174;42.908;23.800;2022-11-12T13:40:19;24.13;;;12.63;;
40471;SDS011;26174;42.908;23.800;2022-11-12T13:42:49;25.90;;;13.73;;
40471;SDS011;26174;42.908;23.800;2022-11-12T13:45:16;22.60;;;12.57;;
40471;SDS011;26174;42.908;23.800;2022-11-12T13:47:43;23.10;;;11.55;;
40471;SDS011;26174;42.908;23.800;2022-11-12T13:50:12;24.33;;;12.85;;
40471;SDS011;26174;42.908;23.800;2022-11-12T13:52:41;22.15;;;11.73;;
40471;SDS011;26174;42.908;23.800;2022-11-12T13:55:12;26.35;;;13.60;;
40471;SDS011;26174;42.908;23.800;2022-11-12T13:57:47;26.00;;;13.90;;
40471;SDS011;26174;42.908;23.800;2022-11-12T14:00:23;27.73;;;13.82;;
40471;SDS011;26174;42.908;23.800;2022-11-12T14:05:21;27.98;;;14.75;;
40471;SDS011;26174;42.908;23.800;2022-11-12T14:22:12;18.38;;;10.68;;
40471;SDS011;26174;42.908;23.800;2022-11-12T14:24:42;23.15;;;11.45;;
40471;SDS011;26174;42.908;23.800;2022-11-12T14:27:23;20.80;;;11.80;;
40471;SDS011;26174;42.908;23.800;2022-11-12T14:32:42;27.52;;;15.65;;
40471;SDS011;26174;42.908;23.800;2022-11-12T14:41:02;22.55;;;10.40;;
40471;SDS011;26174;42.908;23.800;2022-11-12T14:43:45;16.60;;;10.15;;
40471;SDS011;26174;42.908;23.800;2022-11-12T14:49:03;19.80;;;11.80;;
40471;SDS011;26174;42.908;23.800;2022-11-12T14:51:31;24.90;;;12.77;;
40471;SDS011;26174;42.908;23.800;2022-11-12T14:53:59;24.75;;;13.15;;
40471;SDS011;26174;42.908;23.800;2022-11-12T14:56:35;24.55;;;14.60;;
40471;SDS011;26174;42.908;23.800;2022-11-12T14:59:02;29.30;;;13.65;;
40471;SDS011;26174;42.908;23.800;2022-11-12T15:01:33;22.80;;;13.02;;
40471;SDS011;26174;42.908;23.800;2022-11-12T15:04:04;56.80;;;23.77;;
40471;SDS011;26174;42.908;23.800;2022-11-12T15:06:41;33.00;;;16.90;;
40471;SDS011;26174;42.908;23.800;2022-11-12T15:09:24;30.73;;;15.52;;
40471;SDS011;26174;42.908;23.800;2022-11-12T15:12:01;28.33;;;15.18;;
40471;SDS011;26174;42.908;23.800;2022-11-12T15:14:28;25.70;;;16.10;;
40471;SDS011;26174;42.908;23.800;2022-11-12T15:16:54;35.47;;;18.77;;
40471;SDS011;26174;42.908;23.800;2022-11-12T15:19:24;54.55;;;26.83;;
40471;SDS011;26174;42.908;23.800;2022-11-12T15:21:53;49.92;;;25.88;;
40471;SDS011;26174;42.908;23.800;2022-11-12T15:24:30;42.80;;;23.35;;
40471;SDS011;26174;42.908;23.800;2022-11-12T15:26:58;41.10;;;22.67;;
40471;SDS011;26174;42.908;23.800;2022-11-12T15:29:26;52.72;;;29.42;;
40471;SDS011;26174;42.908;23.800;2022-11-12T15:31:59;48.15;;;25.42;;
40471;SDS011;26174;42.908;23.800;2022-11-12T15:37:26;51.42;;;28.13;;
40471;SDS011;26174;42.908;23.800;2022-11-12T15:42:29;54.53;;;30.02;;
40471;SDS011;26174;42.908;23.800;2022-11-12T15:44:58;54.97;;;30.60;;
40471;SDS011;26174;42.908;23.800;2022-11-12T15:47:25;47.55;;;24.65;;
40471;SDS011;26174;42.908;23.800;2022-11-12T15:49:51;54.72;;;28.65;;
40471;SDS011;26174;42.908;23.800;2022-11-12T15:52:18;55.97;;;28.63;;
40471;SDS011;26174;42.908;23.800;2022-11-12T15:54:44;54.47;;;28.33;;
40471;SDS011;26174;42.908;23.800;2022-11-12T15:57:11;53.95;;;27.73;;
40471;SDS011;26174;42.908;23.800;2022-11-12T15:59:39;57.55;;;31.02;;
40471;SDS011;26174;42.908;23.800;2022-11-12T16:02:08;57.88;;;31.17;;
40471;SDS011;26174;42.908;23.800;2022-11-12T16:07:02;69.47;;;36.45;;
40471;SDS011;26174;42.908;23.800;2022-11-12T16:09:36;68.75;;;36.00;;
40471;SDS011;26174;42.908;23.800;2022-11-12T16:12:03;51.45;;;27.70;;
40471;SDS011;26174;42.908;23.800;2022-11-12T16:14:28;51.60;;;27.73;;
40471;SDS011;26174;42.908;23.800;2022-11-12T16:16:54;49.30;;;26.42;;
40471;SDS011;26174;42.908;23.800;2022-11-12T16:19:20;71.60;;;34.65;;
40471;SDS011;26174;42.908;23.800;2022-11-12T16:21:46;61.33;;;30.15;;
40471;SDS011;26174;42.908;23.800;2022-11-12T16:24:11;55.35;;;27.90;;
40471;SDS011;26174;42.908;23.800;2022-11-12T16:26:37;61.72;;;30.83;;
40471;SDS011;26174;42.908;23.800;2022-11-12T16:29:10;60.97;;;30.17;;
40471;SDS011;26174;42.908;23.800;2022-11-12T16:31:39;70.82;;;32.45;;
40471;SDS011;26174;42.908;23.800;2022-11-12T16:34:06;63.20;;;32.85;;
40471;SDS011;26174;42.908;23.800;2022-11-12T16:36:31;63.85;;;33.17;;
40471;SDS011;26174;42.908;23.800;2022-11-12T16:38:57;57.33;;;29.85;;
40471;SDS011;26174;42.908;23.800;2022-11-12T16:41:22;56.38;;;28.92;;
40471;SDS011;26174;42.908;23.800;2022-11-12T16:43:49;65.10;;;31.67;;